Time;durP1;ratioP1;P1;durP2;ratioP2;P2;SDS_P1;SDS_P2;PMS_P1;PMS_P2;Temp;Humidity;BMP_temperature;BMP_pressure;BME280_temperature;BME280_humidity;BME280_pressure;Samples;Min_cycle;Max_cycle;Signal;HPM_P1;HPM_P2
2021/11/08 00:02:20;;;;;;;379.83;362.37;;;6.60;99.90;;;;;;4407649;32;20231;-61
2021/11/08 00:04:47;;;;;;;354.50;338.33;;;6.60;99.90;;;;;;4406994;32;20142;-61
2021/11/08 00:07:15;;;;;;;370.87;353.83;;;6.60;99.90;;;;;;4408058;32;20223;-60
2021/11/08 00:09:43;;;;;;;366.63;350.30;;;6.60;99.90;;;;;;4408815;32;20174;-61
2021/11/08 00:12:11;;;;;;;370.87;354.43;;;6.50;99.90;;;;;;4406768;32;20159;-61
2021/11/08 00:14:40;;;;;;;362.67;347.33;;;6.50;99.90;;;;;;4406818;32;20506;-60
2021/11/08 00:17:15;;;;;;;373.30;357.10;;;6.50;99.90;;;;;;4407029;32;20480;-60
2021/11/08 00:22:25;;;;;;;356.53;340.33;;;6.40;99.90;;;;;;4405434;32;20172;-60
2021/11/08 00:24:52;;;;;;;345.00;330.20;;;6.40;99.90;;;;;;4406719;32;20190;-61
2021/11/08 00:27:19;;;;;;;350.23;334.27;;;6.40;99.90;;;;;;4416015;32;20240;-61
2021/11/08 00:29:47;;;;;;;363.47;347.57;;;6.40;99.90;;;;;;4423064;32;20170;-60
2021/11/08 00:32:14;;;;;;;369.20;352.80;;;6.40;99.90;;;;;;4411703;32;20164;-60
2021/11/08 00:34:42;;;;;;;349.47;333.87;;;6.40;99.90;;;;;;4413667;32;20175;-60
2021/11/08 00:37:10;;;;;;;364.43;348.20;;;6.30;99.90;;;;;;4414072;32;20214;-60
2021/11/08 00:39:38;;;;;;;408.10;389.90;;;6.60;99.90;;;;;;4418485;32;20182;-61
2021/11/08 00:42:06;;;;;;;425.27;405.93;;;6.70;99.90;;;;;;4419819;32;20216;-60
2021/11/08 00:44:33;;;;;;;407.37;388.90;;;6.80;99.90;;;;;;4406598;32;20250;-60
2021/11/08 00:47:00;;;;;;;404.30;385.33;;;6.80;99.90;;;;;;4416853;32;20313;-61
2021/11/08 00:49:27;;;;;;;403.40;384.53;;;6.80;99.90;;;;;;4413270;32;20164;-60
2021/11/08 00:51:55;;;;;;;390.93;373.10;;;6.80;99.90;;;;;;4405916;32;20174;-60
2021/11/08 00:54:23;;;;;;;395.33;376.83;;;6.70;99.90;;;;;;4405775;32;20159;-61
2021/11/08 00:56:53;;;;;;;390.77;373.23;;;6.60;99.90;;;;;;4405986;32;20156;-60
2021/11/08 00:59:20;;;;;;;365.80;348.87;;;6.50;99.90;;;;;;4409543;32;20208;-60
2021/11/08 01:01:52;;;;;;;352.10;336.13;;;6.40;99.90;;;;;;4413921;32;20178;-60
2021/11/08 01:04:21;;;;;;;377.70;360.87;;;6.40;99.90;;;;;;4410111;32;20156;-60
2021/11/08 01:06:48;;;;;;;357.43;341.37;;;6.40;99.90;;;;;;4422060;32;20155;-60
2021/11/08 01:09:16;;;;;;;363.70;347.27;;;6.30;99.90;;;;;;4420411;32;20624;-60
2021/11/08 01:11:45;;;;;;;392.20;374.53;;;6.30;99.90;;;;;;4417410;32;20576;-60
2021/11/08 01:14:12;;;;;;;414.57;395.50;;;6.20;99.90;;;;;;4413639;32;20178;-60
2021/11/08 01:16:39;;;;;;;376.30;359.43;;;6.20;99.90;;;;;;4413699;32;20215;-60
2021/11/08 01:19:07;;;;;;;384.87;367.17;;;6.20;99.90;;;;;;4422199;32;20155;-60
2021/11/08 01:21:35;;;;;;;359.97;344.17;;;6.10;99.90;;;;;;4421136;32;20652;-59
2021/11/08 01:24:02;;;;;;;369.00;352.07;;;6.10;99.90;;;;;;4416069;32;20179;-60
2021/11/08 01:26:30;;;;;;;383.40;366.57;;;6.10;99.90;;;;;;4414105;32;20152;-60
2021/11/08 01:28:58;;;;;;;366.00;349.10;;;6.10;99.90;;;;;;4407675;32;20178;-61
2021/11/08 01:31:25;;;;;;;370.63;353.50;;;6.00;99.90;;;;;;4405324;32;20175;-60
2021/11/08 01:33:53;;;;;;;363.23;347.13;;;6.00;99.90;;;;;;4406327;32;20182;-60
2021/11/08 01:36:24;;;;;;;371.53;354.33;;;6.00;99.90;;;;;;4420188;32;20220;-61
2021/11/08 01:38:54;;;;;;;372.27;355.80;;;6.00;99.90;;;;;;4407155;32;20660;-60
2021/11/08 01:41:24;;;;;;;369.37;352.77;;;5.90;99.90;;;;;;4414727;32;20460;-61
2021/11/08 01:43:52;;;;;;;349.03;332.27;;;6.00;99.90;;;;;;4405577;32;20179;-61
2021/11/08 01:46:21;;;;;;;363.50;347.00;;;5.90;99.90;;;;;;4406917;32;20264;-60
2021/11/08 01:48:48;;;;;;;352.20;336.67;;;5.90;99.90;;;;;;4421700;32;20446;-60
2021/11/08 01:51:16;;;;;;;360.53;343.17;;;5.90;99.90;;;;;;4418092;32;20511;-61
2021/11/08 01:53:44;;;;;;;359.83;343.77;;;5.80;99.90;;;;;;4411844;32;20178;-60
2021/11/08 01:56:11;;;;;;;358.43;341.87;;;5.80;99.90;;;;;;4405742;32;20199;-60
2021/11/08 01:58:38;;;;;;;352.63;336.47;;;5.80;99.90;;;;;;4411375;32;20215;-61
2021/11/08 02:01:06;;;;;;;360.47;344.60;;;5.80;99.90;;;;;;4414240;32;20219;-61
2021/11/08 02:03:35;;;;;;;354.43;338.50;;;5.80;99.90;;;;;;4410308;32;20147;-60
2021/11/08 02:06:01;;;;;;;366.33;350.23;;;5.80;99.90;;;;;;4420021;32;20179;-60
2021/11/08 02:08:29;;;;;;;367.23;350.87;;;5.80;99.90;;;;;;4412718;32;20166;-60
2021/11/08 02:10:56;;;;;;;346.20;330.67;;;5.80;99.90;;;;;;4411063;32;20380;-61
2021/11/08 02:13:24;;;;;;;351.73;335.80;;;5.70;99.90;;;;;;4415117;32;20182;-61
2021/11/08 02:15:51;;;;;;;350.77;335.60;;;5.70;99.90;;;;;;4420637;32;20221;-60
2021/11/08 02:18:20;;;;;;;342.33;327.00;;;5.70;99.90;;;;;;4418140;32;20174;-60
2021/11/08 02:20:50;;;;;;;342.07;327.17;;;5.60;99.90;;;;;;4420105;32;20609;-60
2021/11/08 02:23:19;;;;;;;346.27;330.80;;;5.60;99.90;;;;;;4413480;32;20171;-60
2021/11/08 02:25:48;;;;;;;354.60;338.60;;;5.60;99.90;;;;;;4409611;32;20578;-60
2021/11/08 02:28:17;;;;;;;342.70;327.67;;;5.60;99.90;;;;;;4405641;32;20187;-60
2021/11/08 02:30:44;;;;;;;333.77;319.20;;;5.50;99.90;;;;;;4410576;32;20603;-60
2021/11/08 02:33:17;;;;;;;345.57;329.97;;;5.50;99.90;;;;;;4420201;32;20186;-60
2021/11/08 02:35:45;;;;;;;345.57;330.50;;;5.40;99.90;;;;;;4420275;32;20152;-60
2021/11/08 02:38:18;;;;;;;329.30;315.17;;;5.40;99.90;;;;;;4421352;32;20174;-60
2021/11/08 02:40:45;;;;;;;326.07;311.53;;;5.30;99.90;;;;;;4405989;32;20174;-60
2021/11/08 02:43:19;;;;;;;327.93;313.33;;;5.20;99.90;;;;;;4415718;32;20216;-61
2021/11/08 02:45:47;;;;;;;327.97;313.33;;;5.20;99.90;;;;;;4408335;32;20162;-60
2021/11/08 02:48:15;;;;;;;326.20;311.17;;;5.30;99.90;;;;;;4416926;32;20197;-60
2021/11/08 02:50:43;;;;;;;332.33;317.17;;;5.10;99.90;;;;;;4411353;32;20226;-60
2021/11/08 02:53:14;;;;;;;325.00;311.13;;;5.10;99.90;;;;;;4409715;32;20222;-60
2021/11/08 02:55:44;;;;;;;310.80;297.10;;;5.10;99.90;;;;;;4408789;32;20638;-60
2021/11/08 02:58:11;;;;;;;323.67;309.03;;;5.10;99.90;;;;;;4420640;32;20217;-60
2021/11/08 03:00:38;;;;;;;322.70;308.47;;;5.10;99.90;;;;;;4422008;32;20170;-59
2021/11/08 03:03:05;;;;;;;322.03;307.20;;;5.00;99.90;;;;;;4416735;32;20194;-60
2021/11/08 03:05:33;;;;;;;343.80;328.57;;;5.00;99.90;;;;;;4413541;32;20155;-59
2021/11/08 03:08:01;;;;;;;332.63;317.97;;;5.10;99.90;;;;;;4422901;32;20183;-60
2021/11/08 03:10:30;;;;;;;333.37;318.97;;;5.00;99.90;;;;;;4421191;32;20155;-60
2021/11/08 03:13:06;;;;;;;314.80;301.20;;;5.00;99.90;;;;;;4416681;32;20152;-60
2021/11/08 03:15:44;;;;;;;342.33;327.27;;;5.00;99.90;;;;;;4409123;32;20148;-60
2021/11/08 03:18:15;;;;;;;325.17;310.77;;;5.00;99.90;;;;;;4410578;32;20265;-60
2021/11/08 03:20:42;;;;;;;328.03;313.83;;;5.10;99.90;;;;;;4418904;32;20177;-60
2021/11/08 03:23:09;;;;;;;324.93;310.07;;;5.00;99.90;;;;;;4420760;32;20583;-60
2021/11/08 03:25:43;;;;;;;347.37;331.63;;;5.10;99.90;;;;;;4424230;32;20171;-61
2021/11/08 03:28:12;;;;;;;356.43;340.23;;;5.30;99.90;;;;;;4415457;32;20150;-59
2021/11/08 03:30:42;;;;;;;356.93;340.57;;;5.40;99.90;;;;;;4407512;32;20160;-60
2021/11/08 03:33:11;;;;;;;375.03;357.83;;;5.60;99.90;;;;;;4413196;32;20214;-60
2021/11/08 03:35:38;;;;;;;379.17;361.27;;;5.70;99.90;;;;;;4420977;32;20200;-60
2021/11/08 03:38:07;;;;;;;395.57;376.83;;;5.80;99.90;;;;;;4412008;32;20156;-60
2021/11/08 03:40:37;;;;;;;400.63;382.37;;;5.90;99.90;;;;;;4420341;32;20616;-60
2021/11/08 03:43:05;;;;;;;384.13;366.73;;;6.00;99.90;;;;;;4414949;32;20187;-59
2021/11/08 03:45:35;;;;;;;399.13;380.47;;;6.10;99.90;;;;;;4416200;32;20176;-60
2021/11/08 03:48:03;;;;;;;399.83;381.60;;;6.10;99.90;;;;;;4419988;32;20199;-60
2021/11/08 03:50:30;;;;;;;378.20;361.00;;;6.10;99.90;;;;;;4416263;32;20226;-60
2021/11/08 03:52:57;;;;;;;353.70;336.80;;;6.10;99.90;;;;;;4409765;32;20194;-59
2021/11/08 03:55:25;;;;;;;364.67;348.63;;;6.00;99.90;;;;;;4423670;32;20190;-60
2021/11/08 03:57:53;;;;;;;360.67;344.27;;;6.10;99.90;;;;;;4418035;32;20203;-59
2021/11/08 04:00:22;;;;;;;349.37;333.60;;;6.00;99.90;;;;;;4407520;32;20175;-60
2021/11/08 04:02:51;;;;;;;359.80;343.90;;;6.00;99.90;;;;;;4408141;32;20199;-60
2021/11/08 04:05:20;;;;;;;335.77;320.77;;;5.90;99.90;;;;;;4421114;32;20567;-60
2021/11/08 04:07:47;;;;;;;345.43;329.77;;;5.90;99.90;;;;;;4416424;32;20147;-60
2021/11/08 04:10:16;;;;;;;339.37;323.70;;;5.80;99.90;;;;;;4412218;32;20159;-60
2021/11/08 04:12:43;;;;;;;348.73;333.13;;;5.70;99.90;;;;;;4421505;32;20196;-60
2021/11/08 04:15:13;;;;;;;334.37;319.33;;;5.60;99.90;;;;;;4417515;32;20215;-59
2021/11/08 04:17:44;;;;;;;358.07;342.07;;;5.70;99.90;;;;;;4421504;32;20156;-60
2021/11/08 04:20:13;;;;;;;333.27;319.10;;;5.60;99.90;;;;;;4414727;32;20213;-60
2021/11/08 04:22:40;;;;;;;340.63;325.77;;;5.60;99.90;;;;;;4413370;32;20156;-60
2021/11/08 04:25:09;;;;;;;337.37;322.07;;;5.60;99.90;;;;;;4413859;32;20471;-60
2021/11/08 04:27:37;;;;;;;329.50;314.90;;;5.60;99.90;;;;;;4423109;32;20283;-59
2021/11/08 04:30:06;;;;;;;325.73;311.10;;;5.50;99.90;;;;;;4420593;32;20603;-60
2021/11/08 04:32:41;;;;;;;328.37;314.17;;;5.40;99.90;;;;;;4420277;32;20174;-60
2021/11/08 04:35:12;;;;;;;321.27;306.60;;;5.40;99.90;;;;;;4409654;32;20177;-60
2021/11/08 04:40:26;;;;;;;349.47;334.37;;;5.60;99.90;;;;;;4406321;32;20209;-60
2021/11/08 04:43:00;;;;;;;326.37;311.70;;;5.60;99.90;;;;;;4412656;32;20160;-59
2021/11/08 04:51:07;;;;;;;349.80;334.37;;;5.90;99.90;;;;;;4329699;33;20157;-59
2021/11/08 04:53:42;;;;;;;367.37;350.33;;;6.10;99.90;;;;;;4329200;33;20166;-59
2021/11/08 05:31:58;;;;;;;319.77;305.63;;;6.10;99.90;;;;;;4384566;32;20170;-59
2021/11/08 05:34:25;;;;;;;341.30;325.37;;;6.00;99.90;;;;;;4374624;32;20168;-60
2021/11/08 05:36:52;;;;;;;314.90;301.20;;;6.10;99.90;;;;;;4384655;32;20161;-60
2021/11/08 05:39:18;;;;;;;328.97;314.20;;;6.10;99.90;;;;;;4373611;32;20224;-60
2021/11/08 05:41:47;;;;;;;326.10;311.07;;;6.00;99.90;;;;;;4382915;32;20634;-59
2021/11/08 05:44:14;;;;;;;318.67;304.07;;;5.90;99.90;;;;;;4376507;32;20584;-59
2021/11/08 05:46:41;;;;;;;325.33;310.47;;;5.80;99.90;;;;;;4383662;32;20231;-60
2021/11/08 05:49:07;;;;;;;330.27;315.10;;;5.80;99.90;;;;;;4377342;32;20236;-59
2021/11/08 05:51:35;;;;;;;315.97;301.77;;;5.70;99.90;;;;;;4388408;32;20171;-60
2021/11/08 05:54:02;;;;;;;296.00;282.73;;;5.60;99.90;;;;;;4387588;32;20155;-60
2021/11/08 05:56:32;;;;;;;277.20;264.83;;;5.50;99.90;;;;;;4387737;32;20227;-60
2021/11/08 05:59:13;;;;;;;309.50;295.80;;;5.50;99.90;;;;;;4376646;32;20160;-60
2021/11/08 06:49:06;;;;;;;355.13;338.60;;;6.50;99.90;;;;;;4315460;33;20172;-60
2021/11/08 06:51:35;;;;;;;369.57;353.03;;;6.50;99.90;;;;;;4317081;33;20252;-60
2021/11/08 06:54:02;;;;;;;348.97;332.63;;;6.60;99.90;;;;;;4317113;33;20193;-60
2021/11/08 06:56:34;;;;;;;387.43;369.93;;;6.70;99.90;;;;;;4378616;32;20238;-60
2021/11/08 06:59:03;;;;;;;375.90;358.10;;;6.70;99.90;;;;;;4377509;32;20241;-60
2021/11/08 07:01:30;;;;;;;356.83;340.77;;;6.70;99.90;;;;;;4382862;32;20197;-60
2021/11/08 07:03:58;;;;;;;345.83;330.20;;;6.50;99.90;;;;;;4380019;32;20599;-59
2021/11/08 07:06:28;;;;;;;319.83;304.40;;;6.40;99.90;;;;;;4383993;32;20619;-59
2021/11/08 07:08:55;;;;;;;307.30;292.90;;;6.30;99.90;;;;;;4382756;32;20250;-59
2021/11/08 07:11:22;;;;;;;348.67;332.33;;;6.30;99.90;;;;;;4378302;32;20210;-58
2021/11/08 07:13:49;;;;;;;343.07;327.93;;;6.30;99.90;;;;;;4378036;32;20558;-59
2021/11/08 07:16:15;;;;;;;336.80;321.33;;;6.40;99.90;;;;;;4378895;32;20156;-59
2021/11/08 07:18:42;;;;;;;358.13;341.40;;;6.50;99.90;;;;;;4378959;32;20302;-60
2021/11/08 07:21:10;;;;;;;363.80;346.40;;;6.70;99.90;;;;;;4393723;32;20174;-59
2021/11/08 07:23:37;;;;;;;365.07;347.77;;;6.80;99.90;;;;;;4412387;32;20530;-59
2021/11/08 07:26:06;;;;;;;374.07;356.27;;;7.00;99.90;;;;;;4412160;32;20302;-59
2021/11/08 07:28:33;;;;;;;380.57;362.33;;;7.10;99.90;;;;;;4409265;32;20147;-59
2021/11/08 07:31:00;;;;;;;366.40;349.60;;;7.20;99.90;;;;;;4408511;32;20518;-60
2021/11/08 07:33:28;;;;;;;372.10;354.60;;;7.30;99.90;;;;;;4410811;32;20171;-59
2021/11/08 07:35:56;;;;;;;373.70;355.60;;;7.40;99.90;;;;;;4414885;32;20228;-60
2021/11/08 07:38:25;;;;;;;368.43;350.80;;;7.40;99.90;;;;;;4413902;32;20182;-59
2021/11/08 07:40:52;;;;;;;384.87;366.73;;;7.40;99.90;;;;;;4412254;32;20171;-59
2021/11/08 07:43:19;;;;;;;370.50;352.87;;;7.50;99.90;;;;;;4414495;32;20193;-59
2021/11/08 07:45:51;;;;;;;369.57;352.67;;;7.60;99.90;;;;;;4414705;32;20270;-61
2021/11/08 07:48:20;;;;;;;371.57;354.57;;;7.70;99.90;;;;;;4412631;32;20202;-59
2021/11/08 07:50:48;;;;;;;356.57;339.70;;;7.80;99.90;;;;;;4411329;32;20176;-59
2021/11/08 07:53:15;;;;;;;366.47;349.50;;;7.80;99.90;;;;;;4410739;32;20174;-59
2021/11/08 07:55:43;;;;;;;355.47;339.87;;;7.90;99.90;;;;;;4413183;32;20195;-59
2021/11/08 07:58:14;;;;;;;370.23;353.13;;;8.00;99.90;;;;;;4403311;32;20212;-59
2021/11/08 08:00:42;;;;;;;355.90;339.53;;;8.10;99.90;;;;;;4406353;32;20160;-60
2021/11/08 08:03:10;;;;;;;367.00;350.63;;;8.20;99.90;;;;;;4409570;32;20169;-59
2021/11/08 08:05:37;;;;;;;352.87;336.87;;;8.30;99.90;;;;;;4408209;32;20194;-59
2021/11/08 08:08:05;;;;;;;357.20;340.77;;;8.40;99.90;;;;;;4407147;32;20156;-60
2021/11/08 08:10:32;;;;;;;373.00;355.83;;;8.40;99.90;;;;;;4410536;32;20164;-60
2021/11/08 08:13:00;;;;;;;344.70;328.77;;;8.60;99.90;;;;;;4411379;32;20155;-61
2021/11/08 08:15:28;;;;;;;349.33;333.10;;;8.60;99.90;;;;;;4413485;32;20227;-60
2021/11/08 08:17:56;;;;;;;335.17;319.57;;;8.60;99.90;;;;;;4409911;32;20194;-61
2021/11/08 08:20:24;;;;;;;335.50;320.43;;;8.60;99.90;;;;;;4411337;32;20219;-59
2021/11/08 08:22:51;;;;;;;340.23;325.30;;;8.70;99.90;;;;;;4409693;32;20227;-62
2021/11/08 08:25:19;;;;;;;336.80;322.40;;;8.80;99.90;;;;;;4412551;32;20171;-60
2021/11/08 08:27:46;;;;;;;346.37;330.57;;;8.80;99.90;;;;;;4411398;32;20234;-59
2021/11/08 08:30:14;;;;;;;344.27;328.67;;;8.90;99.90;;;;;;4410595;32;20182;-60
2021/11/08 08:32:41;;;;;;;354.53;338.63;;;8.80;99.90;;;;;;4412484;32;20186;-60
2021/11/08 08:35:10;;;;;;;338.70;323.87;;;8.90;99.90;;;;;;4411461;32;20179;-60
2021/11/08 08:37:37;;;;;;;339.20;323.90;;;8.90;99.90;;;;;;4398920;32;20252;-60
2021/11/08 08:40:05;;;;;;;363.50;347.23;;;8.90;99.90;;;;;;4411950;32;20160;-60
2021/11/08 08:42:33;;;;;;;350.77;335.37;;;9.00;99.90;;;;;;4409811;32;20140;-59
2021/11/08 08:44:59;;;;;;;341.67;326.07;;;9.10;99.90;;;;;;4411550;32;20205;-59
2021/11/08 08:47:28;;;;;;;326.40;311.93;;;9.10;99.90;;;;;;4412250;32;20167;-60
2021/11/08 08:49:55;;;;;;;331.07;315.77;;;9.10;99.90;;;;;;4411603;32;20192;-60
2021/11/08 08:52:23;;;;;;;350.60;334.47;;;9.20;99.90;;;;;;4413636;32;20213;-60
2021/11/08 08:54:52;;;;;;;357.23;340.60;;;9.30;99.90;;;;;;4410102;32;20184;-62
2021/11/08 08:57:19;;;;;;;332.80;317.80;;;9.50;99.90;;;;;;4411691;32;20280;-62
2021/11/08 08:59:46;;;;;;;350.03;334.63;;;9.50;99.90;;;;;;4415666;32;20181;-60
2021/11/08 09:02:13;;;;;;;340.87;325.50;;;9.70;99.90;;;;;;4418397;32;20662;-61
2021/11/08 09:04:41;;;;;;;337.13;322.63;;;9.70;99.90;;;;;;4421506;32;20180;-60
2021/11/08 09:07:09;;;;;;;340.00;324.77;;;9.60;99.90;;;;;;4421686;32;20178;-62
2021/11/08 09:09:37;;;;;;;326.67;312.03;;;9.60;99.90;;;;;;4421545;32;20210;-59
2021/11/08 09:12:05;;;;;;;349.27;333.43;;;9.60;99.90;;;;;;4406299;32;20183;-60
2021/11/08 09:14:33;;;;;;;323.83;310.00;;;9.80;99.90;;;;;;4414330;32;20184;-60
2021/11/08 09:17:03;;;;;;;326.93;312.53;;;9.80;99.90;;;;;;4419787;32;20182;-61
2021/11/08 09:19:30;;;;;;;313.07;299.13;;;9.80;99.90;;;;;;4408709;32;20204;-60
2021/11/08 09:21:58;;;;;;;314.13;300.57;;;9.90;99.90;;;;;;4407854;32;20219;-61
2021/11/08 09:24:25;;;;;;;335.80;320.90;;;9.90;99.90;;;;;;4409246;32;20218;-60
2021/11/08 09:26:52;;;;;;;337.43;322.87;;;9.70;99.90;;;;;;4420787;32;20220;-61
2021/11/08 09:29:20;;;;;;;356.13;340.20;;;9.60;99.90;;;;;;4413023;32;20160;-60
2021/11/08 09:31:49;;;;;;;402.70;385.20;;;9.60;99.90;;;;;;4419862;32;20174;-60
2021/11/08 09:34:20;;;;;;;393.53;376.03;;;9.90;99.90;;;;;;4415846;32;20179;-62
2021/11/08 09:36:48;;;;;;;365.10;348.67;;;10.30;99.90;;;;;;4406260;32;20175;-59
2021/11/08 09:39:22;;;;;;;364.40;348.67;;;10.60;99.90;;;;;;4407647;32;20166;-62
2021/11/08 09:41:50;;;;;;;352.37;336.50;;;10.70;99.90;;;;;;4401653;32;20176;-59
2021/11/08 09:44:17;;;;;;;288.33;275.40;;;10.90;99.90;;;;;;4404609;32;20192;-59
2021/11/08 09:46:44;;;;;;;254.40;242.80;;;10.90;99.90;;;;;;4408598;32;20184;-61
2021/11/08 09:49:12;;;;;;;260.80;249.53;;;10.80;99.90;;;;;;4405614;32;20224;-61
2021/11/08 09:51:42;;;;;;;288.37;275.33;;;10.50;99.90;;;;;;4405128;32;20174;-60
2021/11/08 09:54:11;;;;;;;293.60;280.57;;;10.40;99.90;;;;;;4409239;32;20219;-61
2021/11/08 09:56:40;;;;;;;347.23;332.07;;;10.20;99.90;;;;;;4408012;32;20183;-60
2021/11/08 09:59:08;;;;;;;398.00;380.57;;;10.00;99.90;;;;;;4406077;32;20204;-61
2021/11/08 10:01:39;;;;;;;420.60;401.50;;;10.00;99.90;;;;;;4421618;32;20210;-60
2021/11/08 10:04:10;;;;;;;415.77;396.40;;;10.10;99.90;;;;;;4414014;32;20722;-61
2021/11/08 10:06:37;;;;;;;434.30;414.40;;;10.10;99.90;;;;;;4413447;32;20162;-62
2021/11/08 10:09:05;;;;;;;437.70;416.83;;;10.10;99.90;;;;;;4405821;32;20174;-60
2021/11/08 10:11:32;;;;;;;440.07;419.57;;;10.10;99.90;;;;;;4417031;32;20159;-60
2021/11/08 10:14:00;;;;;;;433.83;414.00;;;10.20;99.90;;;;;;4413979;32;20185;-61
2021/11/08 10:16:29;;;;;;;430.77;410.97;;;10.50;99.90;;;;;;4409549;32;20161;-59
2021/11/08 10:18:59;;;;;;;407.27;388.30;;;10.90;99.90;;;;;;4406707;32;20690;-62
2021/11/08 10:21:29;;;;;;;395.20;376.23;;;11.30;99.90;;;;;;4412504;32;20195;-59
2021/11/08 10:23:58;;;;;;;396.77;379.43;;;11.40;99.90;;;;;;4408855;32;20201;-61
2021/11/08 10:26:28;;;;;;;350.93;334.90;;;11.60;99.90;;;;;;4407553;32;20203;-63
2021/11/08 10:28:57;;;;;;;307.03;293.13;;;11.60;99.90;;;;;;4407671;32;20166;-62
2021/11/08 10:31:29;;;;;;;303.70;290.37;;;11.60;99.90;;;;;;4409283;32;20219;-61
2021/11/08 10:33:57;;;;;;;316.97;303.00;;;11.60;99.90;;;;;;4407593;32;20227;-63
2021/11/08 10:36:24;;;;;;;323.57;309.03;;;11.60;99.90;;;;;;4407375;32;20155;-63
2021/11/08 10:38:53;;;;;;;300.70;287.50;;;11.50;99.90;;;;;;4410133;32;20989;-61
2021/11/08 10:41:22;;;;;;;297.63;284.17;;;11.30;99.90;;;;;;4406765;32;20160;-61
2021/11/08 10:43:53;;;;;;;325.17;310.80;;;11.00;99.90;;;;;;4408278;32;20168;-61
2021/11/08 10:46:24;;;;;;;325.50;311.10;;;10.90;99.90;;;;;;4407486;32;20155;-60
2021/11/08 10:48:56;;;;;;;333.97;319.23;;;10.80;99.90;;;;;;4404304;32;20159;-62
2021/11/08 10:51:26;;;;;;;341.57;326.60;;;10.60;99.90;;;;;;4404348;32;20167;-61
2021/11/08 10:53:55;;;;;;;334.03;318.83;;;10.60;99.90;;;;;;4406270;32;20216;-60
2021/11/08 10:56:30;;;;;;;380.37;363.20;;;10.50;99.90;;;;;;4411158;32;20182;-61
2021/11/08 10:58:59;;;;;;;356.53;340.27;;;10.50;99.90;;;;;;4404796;32;20711;-61
2021/11/08 11:01:33;;;;;;;410.20;390.83;;;10.50;99.90;;;;;;4404723;32;20160;-61
2021/11/08 11:04:06;;;;;;;385.77;368.33;;;10.60;99.90;;;;;;4408158;32;20237;-61
2021/11/08 11:06:42;;;;;;;398.53;380.10;;;10.60;99.90;;;;;;4409294;32;20166;-62
2021/11/08 11:09:12;;;;;;;411.27;392.53;;;10.70;99.90;;;;;;4409637;32;20222;-63
2021/11/08 11:11:39;;;;;;;393.07;374.40;;;10.80;99.90;;;;;;4407653;32;20181;-61
2021/11/08 11:14:06;;;;;;;398.07;377.43;;;10.90;99.90;;;;;;4413341;32;20215;-63
2021/11/08 11:16:36;;;;;;;377.83;360.53;;;10.90;99.90;;;;;;4407634;32;20171;-62
2021/11/08 11:19:08;;;;;;;386.47;369.03;;;10.90;99.90;;;;;;4411796;32;20178;-63
2021/11/08 11:21:36;;;;;;;366.83;350.10;;;11.00;99.90;;;;;;4417308;32;20181;-60
2021/11/08 11:24:05;;;;;;;378.10;360.23;;;11.00;99.90;;;;;;4414181;32;20261;-61
2021/11/08 11:26:48;;;;;;;362.43;346.03;;;11.10;99.90;;;;;;4408967;32;20215;-60
2021/11/08 11:29:25;;;;;;;374.20;357.17;;;11.10;99.90;;;;;;4411981;32;20170;-60
2021/11/08 11:31:51;;;;;;;378.43;360.93;;;11.40;99.90;;;;;;4408409;32;20587;-60
2021/11/08 11:34:20;;;;;;;363.27;346.70;;;11.70;99.90;;;;;;4413016;32;20178;-60
2021/11/08 11:36:47;;;;;;;303.57;290.17;;;12.10;99.90;;;;;;4410096;32;20652;-62
2021/11/08 11:39:17;;;;;;;285.50;273.17;;;12.30;99.90;;;;;;4408464;32;20526;-60
2021/11/08 11:41:47;;;;;;;252.20;240.97;;;12.50;99.90;;;;;;4406823;32;20268;-62
2021/11/08 11:44:21;;;;;;;243.40;232.60;;;12.70;99.90;;;;;;4409237;32;20195;-60
2021/11/08 11:46:51;;;;;;;238.13;227.77;;;12.70;99.90;;;;;;4416503;32;20521;-61
2021/11/08 11:49:20;;;;;;;222.27;212.50;;;12.90;99.90;;;;;;4411082;32;20187;-62
2021/11/08 11:51:50;;;;;;;214.70;204.67;;;13.00;99.90;;;;;;4408670;32;20345;-61
2021/11/08 11:54:19;;;;;;;199.40;190.17;;;13.10;99.90;;;;;;4409523;32;20187;-61
2021/11/08 11:56:48;;;;;;;183.27;174.33;;;13.20;99.90;;;;;;4416067;32;20230;-61
2021/11/08 11:59:18;;;;;;;170.27;161.83;;;13.20;99.90;;;;;;4418877;32;20237;-61
2021/11/08 12:01:46;;;;;;;195.17;185.93;;;13.20;99.90;;;;;;4412546;32;20160;-61
2021/11/08 12:04:14;;;;;;;223.33;213.33;;;13.20;99.90;;;;;;4408445;32;20176;-61
2021/11/08 12:06:46;;;;;;;242.90;232.40;;;13.30;99.90;;;;;;4417674;32;20191;-64
2021/11/08 12:09:17;;;;;;;223.67;213.63;;;13.40;99.90;;;;;;4416140;32;20160;-61
2021/11/08 12:11:47;;;;;;;233.23;223.03;;;13.60;99.90;;;;;;4408168;32;20238;-60
2021/11/08 12:14:15;;;;;;;249.43;238.07;;;13.50;99.90;;;;;;4408838;32;20164;-61
2021/11/08 12:17:02;;;;;;;238.10;227.37;;;13.50;99.90;;;;;;4407986;32;20155;-61
2021/11/08 12:19:31;;;;;;;250.43;238.67;;;13.50;99.90;;;;;;4414427;32;20160;-61
2021/11/08 12:22:12;;;;;;;215.70;205.63;;;13.60;99.90;;;;;;4407473;32;20174;-61
2021/11/08 12:24:39;;;;;;;223.70;213.40;;;13.60;99.90;;;;;;4409423;32;20159;-61
2021/11/08 12:27:09;;;;;;;236.17;225.27;;;13.60;99.90;;;;;;4412521;32;20629;-62
2021/11/08 12:29:47;;;;;;;241.47;230.80;;;13.50;99.90;;;;;;4409554;32;20211;-61
2021/11/08 12:32:14;;;;;;;227.07;216.77;;;13.70;99.90;;;;;;4407528;32;20261;-62
2021/11/08 12:34:46;;;;;;;254.47;242.87;;;13.60;99.90;;;;;;4407982;32;20179;-64
2021/11/08 12:37:15;;;;;;;232.87;221.83;;;13.70;99.90;;;;;;4407546;32;20177;-63
2021/11/08 12:39:55;;;;;;;240.17;229.83;;;13.70;99.90;;;;;;4410663;32;20160;-63
2021/11/08 12:42:23;;;;;;;255.20;244.37;;;13.80;99.90;;;;;;4409341;32;20183;-61
2021/11/08 12:44:51;;;;;;;249.07;237.53;;;13.90;99.90;;;;;;4420572;32;20171;-61
2021/11/08 12:47:30;;;;;;;231.13;221.03;;;13.80;99.90;;;;;;4404564;32;20182;-64
2021/11/08 12:49:57;;;;;;;226.30;216.33;;;13.80;99.90;;;;;;4412382;32;20166;-61
2021/11/08 12:52:29;;;;;;;226.80;217.03;;;13.80;99.90;;;;;;4405405;32;20171;-61
2021/11/08 12:55:04;;;;;;;244.07;233.47;;;13.60;99.90;;;;;;4406719;32;20160;-61
2021/11/08 12:57:33;;;;;;;234.73;224.60;;;13.60;99.90;;;;;;4410787;32;20456;-61
2021/11/08 13:00:02;;;;;;;276.87;265.40;;;13.60;99.90;;;;;;4408148;32;20490;-61
2021/11/08 13:02:32;;;;;;;274.63;262.83;;;13.60;99.90;;;;;;4412270;32;20190;-61
2021/11/08 13:05:01;;;;;;;234.97;224.70;;;13.60;99.90;;;;;;4408137;32;20226;-62
2021/11/08 13:07:34;;;;;;;232.67;222.23;;;13.50;99.90;;;;;;4412704;32;20151;-61
2021/11/08 13:10:02;;;;;;;244.47;234.10;;;13.20;99.90;;;;;;4408201;32;20226;-61
2021/11/08 13:12:34;;;;;;;251.57;240.93;;;13.00;99.90;;;;;;4415617;32;20156;-61
2021/11/08 13:15:09;;;;;;;266.07;254.77;;;13.00;99.90;;;;;;4407518;32;20184;-61
2021/11/08 13:17:47;;;;;;;241.63;231.33;;;13.00;99.90;;;;;;4407864;32;20208;-64
2021/11/08 13:20:15;;;;;;;268.67;256.73;;;13.10;99.90;;;;;;4417991;32;20156;-62
2021/11/08 13:22:45;;;;;;;277.87;266.33;;;13.00;99.90;;;;;;4415175;32;20224;-62
2021/11/08 13:25:15;;;;;;;285.17;272.80;;;13.00;99.90;;;;;;4410984;32;20183;-61
2021/11/08 13:27:46;;;;;;;271.63;259.80;;;12.90;99.90;;;;;;4412806;32;20270;-61
2021/11/08 13:30:15;;;;;;;287.33;275.13;;;12.80;99.90;;;;;;4406724;32;20155;-61
2021/11/08 13:32:43;;;;;;;270.20;258.70;;;12.70;99.90;;;;;;4411959;32;20174;-62
2021/11/08 13:35:14;;;;;;;277.03;264.83;;;12.60;99.90;;;;;;4410576;32;20186;-63
2021/11/08 13:37:43;;;;;;;281.70;269.30;;;12.50;99.90;;;;;;4408031;32;20568;-61
2021/11/08 13:40:16;;;;;;;262.33;250.87;;;12.30;99.90;;;;;;4412743;32;20571;-62
2021/11/08 13:42:43;;;;;;;275.93;264.10;;;12.20;99.90;;;;;;4331791;32;2406272;-64
2021/11/08 13:45:10;;;;;;;299.23;286.27;;;12.10;99.90;;;;;;4418339;32;20593;-62
2021/11/08 13:47:41;;;;;;;294.50;281.40;;;12.30;99.90;;;;;;4409176;32;20139;-61
2021/11/08 13:50:20;;;;;;;287.67;275.03;;;12.50;99.90;;;;;;4415253;32;20210;-62
2021/11/08 13:52:54;;;;;;;271.77;260.00;;;12.70;99.90;;;;;;4413883;32;20169;-61
2021/11/08 13:55:21;;;;;;;304.57;291.53;;;12.60;99.90;;;;;;4409600;32;20148;-61
2021/11/08 13:57:48;;;;;;;276.97;265.03;;;12.70;99.90;;;;;;4412251;32;20147;-61